Time;durP1;ratioP1;P1;durP2;ratioP2;P2;SDS_P1;SDS_P2;PMS_P1;PMS_P2;Temp;Humidity;BMP_temperature;BMP_pressure;BME280_temperature;BME280_humidity;BME280_pressure;Samples;Min_cycle;Max_cycle;Signal;HPM_P1;HPM_P2
2022/03/24 00:00:32;;;;;;;37.00;17.40;;;;;;;;;;5130006;28;20404;-56
2022/03/24 00:02:58;;;;;;;27.70;17.40;;;;;;;;;;5130900;28;20423;-55
2022/03/24 00:05:25;;;;;;;27.90;17.77;;;;;;;;;;5131216;28;20422;-56
2022/03/24 00:07:51;;;;;;;27.77;16.93;;;;;;;;;;5103149;28;20474;-55
2022/03/24 00:10:17;;;;;;;21.27;15.20;;;;;;;;;;5131093;28;20420;-56
2022/03/24 00:12:44;;;;;;;22.80;15.03;;;;;;;;;;5130934;28;20502;-55
2022/03/24 00:15:10;;;;;;;28.27;18.47;;;;;;;;;;5130882;28;20506;-55
2022/03/24 00:17:36;;;;;;;31.40;16.53;;;;;;;;;;5131037;28;20838;-55
2022/03/24 00:20:03;;;;;;;24.90;17.07;;;;;;;;;;5131051;28;20412;-55
2022/03/24 00:22:29;;;;;;;27.70;16.37;;;;;;;;;;5133572;27;20427;-55
2022/03/24 00:24:55;;;;;;;24.67;15.97;;;;;;;;;;5130204;27;20435;-55
2022/03/24 00:27:21;;;;;;;29.20;17.00;;;;;;;;;;5134543;27;20472;-55
2022/03/24 00:29:47;;;;;;;27.10;17.37;;;;;;;;;;5134658;27;20420;-56
2022/03/24 00:32:13;;;;;;;30.17;16.63;;;;;;;;;;5134683;27;20762;-56
2022/03/24 00:34:39;;;;;;;25.70;16.87;;;;;;;;;;5134796;27;20916;-56
2022/03/24 00:37:05;;;;;;;35.90;15.70;;;;;;;;;;5115786;27;20182;-55
2022/03/24 00:39:33;;;;;;;27.10;17.40;;;;;;;;;;5126133;27;20492;-56
2022/03/24 00:42:03;;;;;;;25.87;16.93;;;;;;;;;;5124865;27;20429;-55
2022/03/24 00:44:29;;;;;;;27.13;17.67;;;;;;;;;;5134311;27;20416;-55
2022/03/24 00:46:58;;;;;;;28.87;18.30;;;;;;;;;;5134298;27;20412;-55
2022/03/24 00:49:24;;;;;;;21.97;16.00;;;;;;;;;;5134286;27;20435;-56
2022/03/24 00:51:50;;;;;;;27.07;18.13;;;;;;;;;;5134023;27;20897;-56
2022/03/24 00:54:18;;;;;;;28.10;17.23;;;;;;;;;;5133958;27;20516;-55
2022/03/24 00:56:44;;;;;;;33.63;16.43;;;;;;;;;;5133961;27;20908;-55
2022/03/24 00:59:10;;;;;;;29.23;15.40;;;;;;;;;;5126145;27;20868;-55
2022/03/24 01:01:39;;;;;;;23.90;15.83;;;;;;;;;;5134094;27;20965;-56
2022/03/24 01:04:06;;;;;;;28.70;17.47;;;;;;;;;;5133930;27;20468;-55
2022/03/24 01:06:34;;;;;;;27.73;16.93;;;;;;;;;;5115479;27;20459;-55
2022/03/24 01:09:00;;;;;;;29.03;16.90;;;;;;;;;;5128104;27;20498;-56
2022/03/24 01:11:26;;;;;;;34.40;18.40;;;;;;;;;;5133890;27;20989;-55
2022/03/24 01:13:52;;;;;;;26.73;16.80;;;;;;;;;;5127227;27;20809;-55
2022/03/24 01:16:19;;;;;;;22.20;16.13;;;;;;;;;;5133750;27;20935;-56
2022/03/24 01:18:45;;;;;;;27.87;17.57;;;;;;;;;;5133687;27;20416;-56
2022/03/24 01:21:16;;;;;;;24.63;16.07;;;;;;;;;;5133547;27;20424;-55
2022/03/24 01:23:42;;;;;;;23.77;15.10;;;;;;;;;;5133616;27;20420;-54
2022/03/24 01:26:09;;;;;;;22.93;15.17;;;;;;;;;;5133728;27;20464;-55
2022/03/24 01:28:35;;;;;;;24.67;15.50;;;;;;;;;;5133813;27;20422;-55
2022/03/24 01:31:02;;;;;;;31.13;16.33;;;;;;;;;;5132905;27;20455;-55
2022/03/24 01:33:28;;;;;;;22.90;15.20;;;;;;;;;;5133448;27;20951;-55
2022/03/24 01:35:54;;;;;;;25.87;16.63;;;;;;;;;;5133147;27;20535;-55
2022/03/24 01:38:21;;;;;;;24.97;16.73;;;;;;;;;;5127906;27;20448;-55
2022/03/24 01:40:48;;;;;;;27.67;18.03;;;;;;;;;;5130642;27;20464;-55
2022/03/24 01:43:14;;;;;;;32.60;16.80;;;;;;;;;;5133247;27;20503;-56
2022/03/24 01:45:41;;;;;;;28.77;16.10;;;;;;;;;;5133607;27;20875;-55
2022/03/24 01:48:11;;;;;;;28.77;16.70;;;;;;;;;;5124688;27;20435;-55
2022/03/24 01:50:39;;;;;;;24.07;16.20;;;;;;;;;;5133018;27;20423;-55
2022/03/24 01:53:05;;;;;;;28.90;17.40;;;;;;;;;;5132927;27;20508;-55
2022/03/24 01:55:33;;;;;;;32.43;16.20;;;;;;;;;;5114793;27;20509;-56
2022/03/24 01:57:59;;;;;;;32.20;18.03;;;;;;;;;;5125104;27;20416;-56
2022/03/24 02:00:25;;;;;;;26.10;16.73;;;;;;;;;;5132689;27;20412;-55
2022/03/24 02:02:53;;;;;;;36.47;17.47;;;;;;;;;;5130691;27;20436;-54
2022/03/24 02:05:19;;;;;;;30.40;17.37;;;;;;;;;;5107486;27;20420;-54
2022/03/24 02:07:45;;;;;;;27.27;17.60;;;;;;;;;;5126981;27;20431;-54
2022/03/24 02:10:14;;;;;;;22.33;15.10;;;;;;;;;;5132701;27;20427;-54
2022/03/24 02:12:40;;;;;;;28.93;17.17;;;;;;;;;;5132880;27;20424;-54
2022/03/24 02:15:06;;;;;;;24.87;17.17;;;;;;;;;;5132355;27;20479;-54
2022/03/24 02:17:32;;;;;;;28.97;16.60;;;;;;;;;;5132739;27;20420;-54
2022/03/24 02:19:59;;;;;;;22.50;14.63;;;;;;;;;;5123064;27;20444;-54
2022/03/24 02:22:28;;;;;;;26.00;16.60;;;;;;;;;;5132493;27;20439;-54
2022/03/24 02:24:54;;;;;;;23.70;14.20;;;;;;;;;;5132385;27;20420;-54
2022/03/24 02:27:23;;;;;;;27.80;16.37;;;;;;;;;;5113857;27;20850;-55
2022/03/24 02:29:50;;;;;;;26.77;16.10;;;;;;;;;;5132390;27;20428;-55
2022/03/24 02:32:17;;;;;;;26.00;15.97;;;;;;;;;;5132125;27;20455;-54
2022/03/24 02:34:47;;;;;;;25.80;16.00;;;;;;;;;;5132109;27;20466;-54
2022/03/24 02:37:15;;;;;;;23.70;14.77;;;;;;;;;;5122799;27;20420;-55
2022/03/24 02:39:42;;;;;;;23.10;15.27;;;;;;;;;;5123794;27;20427;-54
2022/03/24 02:42:13;;;;;;;21.73;15.23;;;;;;;;;;5123735;27;20495;-54
2022/03/24 02:44:39;;;;;;;20.63;14.63;;;;;;;;;;5131643;27;20416;-54
2022/03/24 02:47:06;;;;;;;27.17;16.03;;;;;;;;;;5132135;27;20419;-54
2022/03/24 02:49:33;;;;;;;24.30;16.00;;;;;;;;;;5132118;27;20416;-54
2022/03/24 02:52:01;;;;;;;27.30;16.47;;;;;;;;;;5130332;27;20432;-54
2022/03/24 02:54:28;;;;;;;27.80;16.70;;;;;;;;;;5131885;27;20790;-54
2022/03/24 02:56:54;;;;;;;25.30;14.80;;;;;;;;;;5123906;27;20420;-54
2022/03/24 02:59:20;;;;;;;27.77;17.30;;;;;;;;;;5131704;27;20932;-54
2022/03/24 03:01:53;;;;;;;23.53;15.47;;;;;;;;;;5131739;27;20454;-54
2022/03/24 03:04:19;;;;;;;26.40;17.77;;;;;;;;;;5132031;27;20890;-54
2022/03/24 03:06:45;;;;;;;23.97;14.30;;;;;;;;;;5131597;27;20415;-55
2022/03/24 03:09:14;;;;;;;24.63;16.67;;;;;;;;;;5120466;27;20435;-54
2022/03/24 03:11:43;;;;;;;29.40;17.67;;;;;;;;;;5131812;27;20432;-54
2022/03/24 03:14:11;;;;;;;23.33;16.27;;;;;;;;;;5123259;27;20482;-54
2022/03/24 03:16:38;;;;;;;25.40;15.67;;;;;;;;;;5131463;27;20447;-54
2022/03/24 03:19:04;;;;;;;26.20;17.37;;;;;;;;;;5131632;28;20523;-54
2022/03/24 03:21:30;;;;;;;21.13;14.67;;;;;;;;;;5131400;28;20415;-54
2022/03/24 03:23:56;;;;;;;25.97;16.20;;;;;;;;;;5131532;28;20469;-54
2022/03/24 03:26:23;;;;;;;23.50;15.00;;;;;;;;;;5126103;28;20972;-54
2022/03/24 03:28:52;;;;;;;26.00;16.43;;;;;;;;;;5131466;28;20455;-54
2022/03/24 03:31:18;;;;;;;25.33;15.87;;;;;;;;;;5131430;28;20515;-54
2022/03/24 03:33:44;;;;;;;23.77;14.33;;;;;;;;;;5131322;28;20435;-54
2022/03/24 03:36:11;;;;;;;24.33;15.80;;;;;;;;;;5131253;28;20415;-54
2022/03/24 03:38:37;;;;;;;23.63;15.07;;;;;;;;;;5125935;28;20543;-54
2022/03/24 03:41:03;;;;;;;25.10;15.67;;;;;;;;;;5128534;28;20921;-54
2022/03/24 03:43:34;;;;;;;27.60;16.30;;;;;;;;;;5131326;28;20419;-54
2022/03/24 03:46:01;;;;;;;26.03;15.03;;;;;;;;;;5131231;28;20807;-54
2022/03/24 03:48:27;;;;;;;32.67;16.50;;;;;;;;;;5131354;28;20924;-54
2022/03/24 03:50:53;;;;;;;25.17;14.97;;;;;;;;;;5131210;28;20423;-54
2022/03/24 03:53:19;;;;;;;24.97;16.70;;;;;;;;;;5131245;28;20488;-54
2022/03/24 03:55:45;;;;;;;24.43;15.63;;;;;;;;;;5131075;27;20582;-54
2022/03/24 03:58:11;;;;;;;31.90;16.07;;;;;;;;;;5123114;27;20612;-54
2022/03/24 04:00:52;;;;;;;27.07;16.83;;;;;;;;;;5135121;27;20916;-54
2022/03/24 04:03:19;;;;;;;31.77;15.47;;;;;;;;;;5128518;27;20424;-54
2022/03/24 04:05:45;;;;;;;28.93;17.90;;;;;;;;;;5134749;27;20502;-54
2022/03/24 04:08:11;;;;;;;25.63;16.53;;;;;;;;;;5129216;27;20485;-54
2022/03/24 04:10:39;;;;;;;24.60;15.87;;;;;;;;;;5135144;27;20430;-54
2022/03/24 04:13:06;;;;;;;29.57;16.63;;;;;;;;;;5132522;27;20423;-54
2022/03/24 04:15:33;;;;;;;27.53;16.67;;;;;;;;;;5128076;27;20482;-54
2022/03/24 04:17:59;;;;;;;30.93;15.70;;;;;;;;;;5122617;27;20411;-54
2022/03/24 04:20:26;;;;;;;35.70;19.10;;;;;;;;;;5124800;27;20774;-54
2022/03/24 04:22:52;;;;;;;29.37;18.13;;;;;;;;;;5122539;27;20435;-54
2022/03/24 04:25:20;;;;;;;29.57;17.10;;;;;;;;;;5127821;27;20423;-54
2022/03/24 04:27:46;;;;;;;36.93;19.63;;;;;;;;;;5132297;27;20989;-54
2022/03/24 04:30:12;;;;;;;39.63;19.90;;;;;;;;;;5126185;27;20435;-54
2022/03/24 04:32:39;;;;;;;37.20;20.10;;;;;;;;;;5120138;27;20477;-54
2022/03/24 04:35:06;;;;;;;32.83;19.17;;;;;;;;;;5108795;28;20827;-54
2022/03/24 04:37:32;;;;;;;39.90;20.20;;;;;;;;;;5120756;27;20425;-54
2022/03/24 04:39:58;;;;;;;26.90;17.20;;;;;;;;;;5118794;27;20557;-54
2022/03/24 04:42:24;;;;;;;32.50;17.23;;;;;;;;;;5121232;27;20436;-54
2022/03/24 04:44:50;;;;;;;29.00;15.93;;;;;;;;;;5123788;27;20441;-55
2022/03/24 04:47:16;;;;;;;33.20;19.43;;;;;;;;;;5120203;27;20626;-55
2022/03/24 04:49:42;;;;;;;25.33;16.17;;;;;;;;;;5122738;27;20440;-54
2022/03/24 04:52:09;;;;;;;32.20;18.37;;;;;;;;;;5122519;27;20827;-56
2022/03/24 04:54:35;;;;;;;24.93;15.00;;;;;;;;;;5119493;27;20605;-55
2022/03/24 04:57:01;;;;;;;26.73;17.10;;;;;;;;;;5115876;27;20433;-56
2022/03/24 04:59:27;;;;;;;32.40;16.77;;;;;;;;;;5113423;27;20464;-56
2022/03/24 05:01:53;;;;;;;28.63;17.60;;;;;;;;;;5125719;27;21000;-56
2022/03/24 05:04:21;;;;;;;29.87;18.77;;;;;;;;;;5102954;27;20515;-55
2022/03/24 05:06:47;;;;;;;32.43;19.67;;;;;;;;;;5132781;27;20481;-56
2022/03/24 05:09:13;;;;;;;37.70;19.40;;;;;;;;;;5103059;27;20917;-55
2022/03/24 05:11:39;;;;;;;31.03;18.37;;;;;;;;;;5119686;27;20441;-56
2022/03/24 05:14:05;;;;;;;30.80;17.40;;;;;;;;;;5132790;27;20558;-56
2022/03/24 05:16:32;;;;;;;35.20;19.70;;;;;;;;;;5126329;27;20435;-53
2022/03/24 05:18:58;;;;;;;32.00;19.80;;;;;;;;;;5125343;27;20921;-56
2022/03/24 05:21:24;;;;;;;32.03;18.67;;;;;;;;;;5124738;27;20416;-54
2022/03/24 05:23:50;;;;;;;33.73;18.93;;;;;;;;;;5133256;27;20924;-56
2022/03/24 05:26:20;;;;;;;29.77;17.80;;;;;;;;;;5129147;27;20425;-56
2022/03/24 05:28:46;;;;;;;30.43;17.93;;;;;;;;;;5122841;27;20416;-59
2022/03/24 05:31:14;;;;;;;34.50;18.37;;;;;;;;;;5134403;27;20416;-57
2022/03/24 05:33:40;;;;;;;33.37;18.83;;;;;;;;;;5134598;27;20420;-60
2022/03/24 05:36:06;;;;;;;30.47;17.40;;;;;;;;;;5134995;27;20515;-58
2022/03/24 05:38:32;;;;;;;27.37;16.90;;;;;;;;;;5129194;27;20435;-57
2022/03/24 05:40:58;;;;;;;27.70;16.30;;;;;;;;;;5134515;27;20486;-57
2022/03/24 05:43:24;;;;;;;31.47;19.53;;;;;;;;;;5134290;27;20945;-58
2022/03/24 05:45:50;;;;;;;34.33;20.10;;;;;;;;;;5131763;27;20530;-57
2022/03/24 05:48:16;;;;;;;30.77;19.40;;;;;;;;;;5114676;27;20440;-58
2022/03/24 05:50:44;;;;;;;29.23;17.97;;;;;;;;;;5116746;27;20417;-60
2022/03/24 05:53:10;;;;;;;36.00;19.27;;;;;;;;;;5116934;27;20443;-60
2022/03/24 05:55:37;;;;;;;34.07;18.77;;;;;;;;;;5117891;27;20468;-59
2022/03/24 05:58:04;;;;;;;35.37;20.67;;;;;;;;;;5121043;27;20435;-58
2022/03/24 06:00:30;;;;;;;34.90;18.40;;;;;;;;;;5115320;27;20421;-58
2022/03/24 06:02:56;;;;;;;35.27;19.80;;;;;;;;;;5115920;27;20437;-58
2022/03/24 06:05:23;;;;;;;41.10;17.07;;;;;;;;;;5121943;27;20436;-58
2022/03/24 06:07:49;;;;;;;30.63;17.87;;;;;;;;;;5116392;27;20475;-56
2022/03/24 06:10:16;;;;;;;31.47;18.17;;;;;;;;;;5125610;27;20428;-56
2022/03/24 06:12:42;;;;;;;39.53;18.80;;;;;;;;;;5116004;27;20706;-56
2022/03/24 06:15:08;;;;;;;29.70;18.33;;;;;;;;;;5123843;27;20543;-56
2022/03/24 06:17:35;;;;;;;30.80;19.60;;;;;;;;;;5132542;27;20440;-55
2022/03/24 06:20:06;;;;;;;29.13;18.30;;;;;;;;;;5131615;27;20416;-56
2022/03/24 06:22:40;;;;;;;32.13;18.53;;;;;;;;;;5132464;27;20764;-56
2022/03/24 06:25:06;;;;;;;41.27;20.67;;;;;;;;;;5132363;27;20424;-56
2022/03/24 06:27:32;;;;;;;35.00;16.30;;;;;;;;;;5132299;27;20801;-56
2022/03/24 06:29:58;;;;;;;38.63;18.93;;;;;;;;;;5132337;27;21086;-54
2022/03/24 06:32:24;;;;;;;30.47;19.17;;;;;;;;;;5114033;27;20737;-54
2022/03/24 06:34:52;;;;;;;28.90;18.07;;;;;;;;;;5132132;27;20545;-54
2022/03/24 06:37:18;;;;;;;46.23;18.33;;;;;;;;;;5132172;27;20412;-54
2022/03/24 06:39:44;;;;;;;26.40;17.20;;;;;;;;;;5123723;27;20837;-54
2022/03/24 06:42:10;;;;;;;31.40;18.07;;;;;;;;;;5132253;27;20418;-55
2022/03/24 06:44:36;;;;;;;29.43;17.50;;;;;;;;;;5132188;27;20542;-54
2022/03/24 06:47:02;;;;;;;26.43;17.60;;;;;;;;;;5132359;27;20507;-54
2022/03/24 06:49:28;;;;;;;32.73;19.20;;;;;;;;;;5132018;27;20266;-54
2022/03/24 06:51:54;;;;;;;27.43;20.13;;;;;;;;;;5131920;27;20897;-54
2022/03/24 06:54:20;;;;;;;26.93;18.67;;;;;;;;;;5131847;27;20451;-54
2022/03/24 06:56:46;;;;;;;31.47;21.43;;;;;;;;;;5131398;27;20412;-55
2022/03/24 06:59:12;;;;;;;29.77;19.10;;;;;;;;;;5124224;27;20178;-54
2022/03/24 07:01:40;;;;;;;28.87;20.20;;;;;;;;;;5132016;27;20981;-54
2022/03/24 07:04:06;;;;;;;26.23;19.37;;;;;;;;;;5131838;27;20268;-54
2022/03/24 07:06:32;;;;;;;29.67;20.73;;;;;;;;;;5131969;27;20526;-54
2022/03/24 07:08:58;;;;;;;36.77;20.80;;;;;;;;;;5126225;27;20185;-54
2022/03/24 07:11:25;;;;;;;29.30;21.07;;;;;;;;;;5131803;27;20419;-54
2022/03/24 07:13:51;;;;;;;40.37;19.70;;;;;;;;;;5131725;27;20456;-54
2022/03/24 07:16:17;;;;;;;35.13;22.87;;;;;;;;;;5131839;27;20427;-54
2022/03/24 07:18:43;;;;;;;39.90;20.20;;;;;;;;;;5131681;28;20763;-54
2022/03/24 07:21:10;;;;;;;31.07;21.37;;;;;;;;;;5131551;28;20443;-55
2022/03/24 07:23:36;;;;;;;35.10;21.03;;;;;;;;;;5131695;28;20434;-54
2022/03/24 07:26:03;;;;;;;50.23;22.80;;;;;;;;;;5131725;28;20427;-54
2022/03/24 07:28:29;;;;;;;40.40;21.80;;;;;;;;;;5131759;28;20424;-54
2022/03/24 07:30:55;;;;;;;38.40;23.50;;;;;;;;;;5133693;27;20424;-55
2022/03/24 07:33:21;;;;;;;32.73;21.43;;;;;;;;;;5135753;27;20434;-55
2022/03/24 07:35:48;;;;;;;39.40;22.53;;;;;;;;;;5135572;27;20447;-54
2022/03/24 07:38:14;;;;;;;38.40;22.50;;;;;;;;;;5131163;27;20539;-54
2022/03/24 07:40:41;;;;;;;43.40;21.60;;;;;;;;;;5131607;27;20957;-54
2022/03/24 07:43:08;;;;;;;36.93;20.80;;;;;;;;;;5127145;27;20499;-55
2022/03/24 07:45:38;;;;;;;29.77;20.00;;;;;;;;;;5135588;27;20414;-54
2022/03/24 07:48:25;;;;;;;35.73;21.10;;;;;;;;;;5135636;27;20414;-54
2022/03/24 07:50:52;;;;;;;37.13;21.00;;;;;;;;;;5135180;27;20488;-55
2022/03/24 07:53:23;;;;;;;32.13;20.30;;;;;;;;;;5135319;27;20416;-54
2022/03/24 07:55:49;;;;;;;36.67;21.73;;;;;;;;;;5134898;27;20880;-55
2022/03/24 07:58:17;;;;;;;34.57;21.00;;;;;;;;;;5127973;27;20455;-54
2022/03/24 08:00:43;;;;;;;29.70;20.03;;;;;;;;;;5135303;27;20838;-55
2022/03/24 08:03:20;;;;;;;38.07;21.60;;;;;;;;;;5135183;27;20465;-56
2022/03/24 08:05:47;;;;;;;30.93;20.37;;;;;;;;;;5134967;27;21106;-55
2022/03/24 08:08:14;;;;;;;39.40;23.23;;;;;;;;;;5130770;27;20424;-56
2022/03/24 08:10:41;;;;;;;37.23;22.40;;;;;;;;;;5131388;27;20415;-56
2022/03/24 08:13:08;;;;;;;35.87;22.60;;;;;;;;;;5135154;27;20412;-56
2022/03/24 08:15:36;;;;;;;37.93;23.87;;;;;;;;;;5134672;27;20478;-55
2022/03/24 08:18:02;;;;;;;59.23;25.40;;;;;;;;;;5134775;27;20446;-55
2022/03/24 08:20:28;;;;;;;34.40;22.93;;;;;;;;;;5134865;27;20415;-55
2022/03/24 08:22:54;;;;;;;44.60;23.60;;;;;;;;;;5116514;27;20419;-56
2022/03/24 08:25:20;;;;;;;36.03;21.30;;;;;;;;;;5134945;27;20760;-55
2022/03/24 08:27:48;;;;;;;37.50;23.00;;;;;;;;;;5134748;27;20536;-56
2022/03/24 08:30:14;;;;;;;45.60;21.77;;;;;;;;;;5116198;27;20424;-55
2022/03/24 08:32:40;;;;;;;35.50;21.10;;;;;;;;;;5134431;27;20440;-56
2022/03/24 08:35:06;;;;;;;37.97;24.03;;;;;;;;;;5134328;27;20856;-56
2022/03/24 08:37:32;;;;;;;37.00;23.50;;;;;;;;;;5134617;27;20420;-55
2022/03/24 08:39:58;;;;;;;30.53;21.93;;;;;;;;;;5125954;27;20937;-55
2022/03/24 08:42:24;;;;;;;35.73;20.93;;;;;;;;;;5133734;27;20503;-55
2022/03/24 08:44:51;;;;;;;33.40;23.00;;;;;;;;;;5134320;27;20651;-56
2022/03/24 08:47:17;;;;;;;31.47;22.30;;;;;;;;;;5134350;27;20643;-55
2022/03/24 08:49:44;;;;;;;36.47;22.93;;;;;;;;;;5134028;27;20453;-56
2022/03/24 08:52:10;;;;;;;33.60;23.47;;;;;;;;;;5134220;27;20202;-55
2022/03/24 08:54:36;;;;;;;30.37;20.93;;;;;;;;;;5134335;27;20490;-56
2022/03/24 08:57:02;;;;;;;38.17;22.23;;;;;;;;;;5126325;27;20420;-55
2022/03/24 08:59:28;;;;;;;34.10;23.97;;;;;;;;;;5134177;27;20432;-57
2022/03/24 09:01:54;;;;;;;30.67;20.60;;;;;;;;;;5133979;27;20427;-55
2022/03/24 09:04:26;;;;;;;28.13;19.47;;;;;;;;;;5134014;27;20882;-55
2022/03/24 09:06:52;;;;;;;34.37;21.80;;;;;;;;;;5133921;27;20444;-55
2022/03/24 09:09:20;;;;;;;32.50;20.67;;;;;;;;;;5125353;27;20504;-55
2022/03/24 09:11:46;;;;;;;33.20;21.97;;;;;;;;;;5134001;27;20416;-55
2022/03/24 09:14:12;;;;;;;32.50;21.63;;;;;;;;;;5133480;27;20861;-55
2022/03/24 09:16:39;;;;;;;31.27;21.63;;;;;;;;;;5133752;27;20917;-55
2022/03/24 09:19:05;;;;;;;31.47;21.00;;;;;;;;;;5133733;27;20416;-55
2022/03/24 09:21:31;;;;;;;30.00;21.63;;;;;;;;;;5133884;27;20424;-55
2022/03/24 09:23:57;;;;;;;31.70;20.57;;;;;;;;;;5133776;27;20535;-55
2022/03/24 09:26:23;;;;;;;26.87;19.57;;;;;;;;;;5133664;27;20507;-56
2022/03/24 09:28:51;;;;;;;29.67;19.43;;;;;;;;;;5133560;27;20503;-55
2022/03/24 09:31:17;;;;;;;30.93;21.80;;;;;;;;;;5133552;27;20420;-56
2022/03/24 09:33:43;;;;;;;32.30;17.77;;;;;;;;;;5133408;27;20525;-56
2022/03/24 09:36:09;;;;;;;28.77;18.57;;;;;;;;;;5133417;27;20968;-55
2022/03/24 09:38:35;;;;;;;29.67;20.50;;;;;;;;;;5127739;27;20821;-56
2022/03/24 09:41:02;;;;;;;25.33;19.27;;;;;;;;;;5114935;27;20484;-55
2022/03/24 09:43:28;;;;;;;28.20;19.33;;;;;;;;;;5133209;27;20428;-56
2022/03/24 09:45:55;;;;;;;24.23;17.73;;;;;;;;;;5133520;27;20510;-55
2022/03/24 09:48:21;;;;;;;22.80;17.90;;;;;;;;;;5133058;27;20426;-56
2022/03/24 09:50:47;;;;;;;25.10;19.13;;;;;;;;;;5133099;27;20443;-56
2022/03/24 09:53:14;;;;;;;26.53;19.73;;;;;;;;;;5132945;27;20440;-55
2022/03/24 09:55:40;;;;;;;25.57;18.30;;;;;;;;;;5132153;27;20458;-56
2022/03/24 09:58:09;;;;;;;29.10;18.60;;;;;;;;;;5124939;27;20416;-56
2022/03/24 10:00:36;;;;;;;30.80;19.40;;;;;;;;;;5133001;27;20423;-56
2022/03/24 10:03:14;;;;;;;34.63;19.20;;;;;;;;;;5132984;27;20909;-56
2022/03/24 10:06:00;;;;;;;32.33;17.63;;;;;;;;;;5132976;27;20896;-55
2022/03/24 10:08:28;;;;;;;27.20;19.60;;;;;;;;;;5121147;27;20464;-56
2022/03/24 10:11:02;;;;;;;27.10;19.60;;;;;;;;;;5132849;27;20412;-56
2022/03/24 10:13:44;;;;;;;20.67;17.77;;;;;;;;;;5132634;27;20446;-56
2022/03/24 10:16:11;;;;;;;36.43;19.73;;;;;;;;;;5093765;28;20858;-55
2022/03/24 10:18:37;;;;;;;21.03;16.13;;;;;;;;;;5128475;27;20520;-56
2022/03/24 10:21:04;;;;;;;22.97;18.37;;;;;;;;;;5132474;27;20503;-55
2022/03/24 10:23:33;;;;;;;24.97;19.37;;;;;;;;;;5132534;27;20192;-55
2022/03/24 10:26:05;;;;;;;22.67;15.63;;;;;;;;;;5132478;27;20420;-55
2022/03/24 10:28:31;;;;;;;26.53;18.90;;;;;;;;;;5132420;27;20784;-55
2022/03/24 10:30:59;;;;;;;27.47;19.13;;;;;;;;;;5132209;27;20423;-55
2022/03/24 10:33:29;;;;;;;26.63;17.97;;;;;;;;;;5132305;27;20419;-55
2022/03/24 10:36:17;;;;;;;24.40;17.20;;;;;;;;;;5132240;27;20459;-56
2022/03/24 10:38:48;;;;;;;40.93;19.80;;;;;;;;;;5126626;27;20467;-56
2022/03/24 10:41:18;;;;;;;25.77;17.67;;;;;;;;;;5132097;27;20887;-55
2022/03/24 10:43:44;;;;;;;30.13;18.47;;;;;;;;;;5132164;27;20416;-55
2022/03/24 10:46:18;;;;;;;27.97;17.60;;;;;;;;;;5113516;27;20440;-56
2022/03/24 10:48:47;;;;;;;28.67;18.93;;;;;;;;;;5132201;27;20420;-55
2022/03/24 10:51:21;;;;;;;30.37;19.23;;;;;;;;;;5131960;27;20450;-55
2022/03/24 10:53:47;;;;;;;22.53;17.50;;;;;;;;;;5132217;27;20416;-55
2022/03/24 10:56:28;;;;;;;25.93;18.20;;;;;;;;;;5127995;27;20467;-56
2022/03/24 10:59:00;;;;;;;24.47;17.73;;;;;;;;;;5130267;27;20178;-57
2022/03/24 11:01:27;;;;;;;21.43;15.90;;;;;;;;;;5131947;27;21024;-55
2022/03/24 11:03:53;;;;;;;23.07;18.87;;;;;;;;;;5131792;27;20472;-55
2022/03/24 11:06:22;;;;;;;21.07;16.67;;;;;;;;;;5131682;27;20451;-54
2022/03/24 11:08:52;;;;;;;24.80;17.80;;;;;;;;;;5125812;27;20529;-56
2022/03/24 11:11:20;;;;;;;29.93;17.27;;;;;;;;;;5131848;27;20981;-55
2022/03/24 11:13:46;;;;;;;22.43;17.00;;;;;;;;;;5131502;27;20817;-55
2022/03/24 11:16:14;;;;;;;22.87;16.47;;;;;;;;;;5131776;27;20532;-56
2022/03/24 11:18:40;;;;;;;22.37;17.60;;;;;;;;;;5131656;27;20448;-55
2022/03/24 11:21:13;;;;;;;20.77;16.13;;;;;;;;;;5131600;28;20416;-56
2022/03/24 11:23:40;;;;;;;21.40;16.50;;;;;;;;;;5131671;28;20424;-56
2022/03/24 11:26:07;;;;;;;22.10;16.00;;;;;;;;;;5131662;28;20416;-56
2022/03/24 11:28:36;;;;;;;20.70;16.67;;;;;;;;;;5131636;28;20781;-56
2022/03/24 11:31:04;;;;;;;21.50;16.20;;;;;;;;;;5131664;28;20424;-56
2022/03/24 11:33:34;;;;;;;28.70;18.10;;;;;;;;;;5131323;28;20415;-56
2022/03/24 11:36:00;;;;;;;25.23;18.13;;;;;;;;;;5131304;28;20455;-56
2022/03/24 11:38:26;;;;;;;29.00;18.77;;;;;;;;;;5107429;28;20477;-56
2022/03/24 11:40:52;;;;;;;38.17;20.27;;;;;;;;;;5131468;28;20231;-55
2022/03/24 11:43:23;;;;;;;26.63;19.37;;;21.20;1.00;;;;;;5131369;28;20276;-56
2022/03/24 11:46:02;;;;;;;23.33;17.87;;;;;;;;;;5131574;28;20187;-55
2022/03/24 11:48:42;;;;;;;26.83;18.33;;;22.00;1.00;;;;;;5131265;28;20459;-55
2022/03/24 11:51:23;;;;;;;33.93;18.60;;;21.70;1.00;;;;;;5114603;28;20833;-56
2022/03/24 11:54:03;;;;;;;27.30;18.80;;;22.50;1.00;;;;;;5131494;28;20928;-56
2022/03/24 11:56:29;;;;;;;29.30;19.33;;;;;;;;;;5131320;28;20423;-55
2022/03/24 11:58:55;;;;;;;26.47;19.90;;;22.90;1.00;;;;;;5122662;28;20437;-56
2022/03/24 12:01:21;;;;;;;26.67;19.10;;;23.70;1.00;;;;;;5131465;28;20404;-56
2022/03/24 12:03:56;;;;;;;24.70;18.70;;;23.40;1.00;;;;;;5131396;28;20209;-56
2022/03/24 12:06:43;;;;;;;30.57;18.93;;;;;;;;;;5131327;28;20199;-55
2022/03/24 12:09:10;;;;;;;26.40;18.47;;;;;;;;;;5114719;28;20548;-55
2022/03/24 12:11:38;;;;;;;31.13;20.03;;;;;;;;;;5131306;28;20777;-55
2022/03/24 12:14:08;;;;;;;29.83;18.50;;;;;;;;;;5131115;28;20455;-55
2022/03/24 12:16:38;;;;;;;27.43;19.60;;;;;;;;;;5131202;27;20861;-55
2022/03/24 12:19:05;;;;;;;24.77;18.83;;;;;;;;;;5134750;27;20422;-55
2022/03/24 12:21:32;;;;;;;25.43;18.30;;;;;;;;;;5134935;27;20915;-56
2022/03/24 12:24:05;;;;;;;29.97;19.90;;;;;;;;;;5134839;27;20448;-55
2022/03/24 12:26:36;;;;;;;27.07;19.63;;;;;;;;;;5135202;27;20473;-56
2022/03/24 12:29:11;;;;;;;28.07;19.47;;;;;;;;;;5134836;27;20423;-56
2022/03/24 12:31:56;;;;;;;30.40;21.53;;;;;;;;;;5134995;27;20510;-55
2022/03/24 12:34:23;;;;;;;27.47;17.00;;;;;;;;;;5128340;27;20458;-55
2022/03/24 12:36:49;;;;;;;27.70;19.70;;;23.10;1.00;;;;;;5135007;27;20424;-55
2022/03/24 12:39:35;;;;;;;26.40;20.07;;;22.10;1.00;;;;;;5128983;27;20427;-55
2022/03/24 12:42:04;;;;;;;30.20;21.50;;;;;;;;;;5116108;27;20182;-55
2022/03/24 12:44:49;;;;;;;33.63;21.27;;;;;;;;;;5134561;27;20450;-54
2022/03/24 12:47:31;;;;;;;17.60;13.37;;;;;;;;;;5108601;27;20858;-56
2022/03/24 12:49:58;;;;;;;26.43;20.50;;;;;;;;;;5134346;27;20514;-56
2022/03/24 12:52:43;;;;;;;28.13;21.23;;;;;;;;;;5115990;27;20948;-56
2022/03/24 12:55:20;;;;;;;30.20;21.80;;;;;;;;;;5119580;27;20500;-55
2022/03/24 12:57:54;;;;;;;28.53;20.27;;;;;;;;;;5122614;27;20417;-52
2022/03/24 13:00:20;;;;;;;29.07;21.50;;;;;;;;;;5130465;27;20502;-56
2022/03/24 13:02:46;;;;;;;30.07;21.10;;;;;;;;;;5124448;27;20901;-56
2022/03/24 13:05:13;;;;;;;32.70;20.30;;;;;;;;;;5119429;27;20223;-56
2022/03/24 13:07:39;;;;;;;33.43;21.20;;;;;;;;;;5133703;27;20426;-56
2022/03/24 13:10:06;;;;;;;31.40;21.10;;;;;;;;;;5125339;27;20420;-56
2022/03/24 13:12:33;;;;;;;27.20;19.83;;;;;;;;;;5133869;27;20493;-55
2022/03/24 13:14:59;;;;;;;30.10;21.70;;;;;;;;;;5136355;27;20563;-55
2022/03/24 13:17:29;;;;;;;31.40;18.83;;;;;;;;;;5128774;27;20425;-55
2022/03/24 13:19:57;;;;;;;32.60;22.67;;;;;;;;;;5131979;27;20864;-54
2022/03/24 13:22:25;;;;;;;31.90;20.47;;;22.20;1.00;;;;;;5134793;27;20428;-55
2022/03/24 13:25:18;;;;;;;28.10;18.20;;;20.70;1.00;;;;;;5134685;27;20476;-56
2022/03/24 13:27:50;;;;;;;26.80;17.43;;;21.10;1.00;;;;;;5131687;27;20424;-55
2022/03/24 13:30:17;;;;;;;31.47;19.50;;;21.30;1.00;;;;;;5134189;27;20503;-54
2022/03/24 13:32:46;;;;;;;32.10;20.07;;;21.50;1.00;;;;;;5125975;27;20960;-54
2022/03/24 13:35:15;;;;;;;29.10;20.40;;;21.50;1.00;;;;;;5129984;27;20946;-58
2022/03/24 13:37:51;;;;;;;28.97;19.20;;;21.50;1.00;;;;;;5125253;27;20416;-57
2022/03/24 13:40:18;;;;;;;33.20;20.27;;;;;;;;;;5127549;27;20441;-57
2022/03/24 13:42:45;;;;;;;30.40;19.33;;;;;;;;;;5134413;27;20419;-54
2022/03/24 13:45:12;;;;;;;33.10;21.67;;;;;;;;;;5134085;27;20424;-55
2022/03/24 13:47:42;;;;;;;36.67;22.00;;;;;;;;;;5134187;27;20408;-54
2022/03/24 13:50:09;;;;;;;37.27;21.77;;;;;;;;;;5133521;27;20908;-55
2022/03/24 13:52:36;;;;;;;36.60;22.63;;;;;;;;;;5132033;27;20443;-55
2022/03/24 13:55:16;;;;;;;35.40;21.90;;;;;;;;;;5132356;27;20466;-55
2022/03/24 13:57:48;;;;;;;33.90;21.53;;;;;;;;;;5124649;27;20424;-55
2022/03/24 14:00:27;;;;;;;27.90;19.80;;;;;;;;;;5116125;27;20423;-55
2022/03/24 14:02:58;;;;;;;34.23;21.37;;;;;;;;;;5130317;27;20908;-56
2022/03/24 14:05:24;;;;;;;33.50;20.07;;;;;;;;;;5129622;27;20539;-55
2022/03/24 14:08:00;;;;;;;35.87;22.03;;;;;;;;;;5124102;27;20413;-55
2022/03/24 14:10:45;;;;;;;28.00;20.53;;;;;;;;;;5125004;27;20980;-55
2022/03/24 14:13:15;;;;;;;33.23;22.00;;;;;;;;;;5122897;27;20424;-55
2022/03/24 14:15:41;;;;;;;35.57;20.07;;;;;;;;;;5130264;27;20471;-55